Flemingsburg, Kentucky
Current Conditions -  °F | °C
As of 7:15 PM on Thursday 27 Nov 2014 (Local Time) from KFGX Reporting Station
Overcast Overcast  
Wind Chill: 22°   Ceiling: 3200
Heat Index: 29°   Visibility: 7mi
Dew Point: 26°   Wind: 8mph
Humidity: 89%   Direction: 280°W
Pressure: 30.37"   Gusts: NA
Location:  38.42°N, 83.73°W
Report Text: KFGX 280015Z AUTO 28007KT 7SM OVC032 M01/M03 A3037 RMK AO2 T10151031
Loading
Personal Weather Stations






























Interactive Weather Map New forecast layout! Learn more

10-Day Weather Forecast

Advertisements
Track Severe Weather on mobile